Terminal Aerodrome Forecast
Issued by NWS Pocatello, ID

Home | Current Version | Previous Version | Text Only | Print | Product List | Glossary On
Versions: 1 2 3 4 5 6 7 8 9 10 11 12 13 14
282
FTUS45 KPIH 241720
TAFIDA
TAF
KIDA 241720Z 2418/2518 23009KT P6SM VCSH SCT050 BKN100
      TEMPO 2419/2423 -SHRA OVC050
     FM250300 20008KT P6SM VCSH SCT040 BKN080
     FM251700 21010G20KT P6SM VCSH OVC080=

USA.gov is the U.S. government's official web portal to all federal, state and local government web resources and services.